createdAt,value
2018-05-31T00:02:04.164Z,92.16
2018-05-31T00:04:31.263Z,91.93
2018-05-31T00:06:58.320Z,92.17
2018-05-31T00:09:25.813Z,91.95
2018-05-31T00:11:52.827Z,92.50
2018-05-31T00:14:20.102Z,92.25
2018-05-31T00:16:47.149Z,92.30
2018-05-31T00:19:14.224Z,92.12
2018-05-31T00:21:41.373Z,92.14
2018-05-31T00:24:08.532Z,93.20
2018-05-31T00:26:35.788Z,93.41
2018-05-31T00:29:02.812Z,93.89
2018-05-31T00:31:30.358Z,94.08
2018-05-31T00:33:57.722Z,93.95
2018-05-31T00:36:24.741Z,94.03
2018-05-31T00:38:51.861Z,94.27
2018-05-31T00:41:19.092Z,94.32
2018-05-31T00:43:46.238Z,94.50
2018-05-31T00:46:13.228Z,94.88
2018-05-31T00:48:40.375Z,94.87
2018-05-31T00:51:07.418Z,95.14
2018-05-31T00:53:34.440Z,95.06
2018-05-31T00:56:07.379Z,94.72
2018-05-31T00:58:34.408Z,94.63
2018-05-31T01:01:01.624Z,94.80
2018-05-31T01:03:28.620Z,94.80
2018-05-31T01:05:55.639Z,94.73
2018-05-31T01:08:23.027Z,94.61
2018-05-31T01:10:50.732Z,95.31
2018-05-31T01:13:17.842Z,95.05
2018-05-31T01:15:44.882Z,94.61
2018-05-31T01:18:12.568Z,94.75
2018-05-31T01:20:39.603Z,95.16
2018-05-31T01:23:06.645Z,95.39
2018-05-31T01:25:33.657Z,95.50
2018-05-31T01:28:00.659Z,95.93
2018-05-31T01:30:27.652Z,95.87
2018-05-31T01:32:54.672Z,96.11
2018-05-31T01:35:22.237Z,96.27
2018-05-31T01:37:49.237Z,95.93
2018-05-31T01:40:17.039Z,95.75
2018-05-31T01:42:44.087Z,95.56
2018-05-31T01:45:11.110Z,95.53
2018-05-31T01:47:38.117Z,95.67
2018-05-31T01:50:05.140Z,95.58
2018-05-31T01:52:32.325Z,95.54
2018-05-31T01:54:59.393Z,95.56
2018-05-31T01:57:26.417Z,95.50
2018-05-31T01:59:53.464Z,95.65
2018-05-31T02:02:20.503Z,95.69
2018-05-31T02:04:47.638Z,95.81
2018-05-31T02:07:14.788Z,95.45
2018-05-31T02:09:41.812Z,95.21
2018-05-31T02:12:08.833Z,95.33
2018-05-31T02:14:35.850Z,95.63
2018-05-31T02:17:02.987Z,95.81
2018-05-31T02:19:30.223Z,95.61
2018-05-31T02:21:57.240Z,95.40
2018-05-31T02:24:24.264Z,95.07
2018-05-31T02:26:51.255Z,94.60
2018-05-31T02:29:18.296Z,94.60
2018-05-31T02:31:45.319Z,94.66
2018-05-31T02:34:12.364Z,94.68
2018-05-31T02:36:39.358Z,94.63
2018-05-31T02:39:06.483Z,94.87
2018-05-31T02:41:33.690Z,94.96
2018-05-31T02:44:00.939Z,94.99
2018-05-31T02:46:27.939Z,95.06
2018-05-31T02:48:54.940Z,95.06
2018-05-31T02:51:21.947Z,94.93
2018-05-31T02:53:48.944Z,94.90
2018-05-31T02:56:16.149Z,94.92
2018-05-31T02:58:43.229Z,95.06
2018-05-31T03:01:10.254Z,95.02
2018-05-31T03:03:37.242Z,95.01
2018-05-31T03:06:04.268Z,95.05
2018-05-31T03:08:31.332Z,95.09
2018-05-31T03:10:58.363Z,95.20
2018-05-31T03:13:25.395Z,95.17
2018-05-31T03:15:52.568Z,95.20
2018-05-31T03:18:19.583Z,95.18
2018-05-31T03:20:46.607Z,94.93
2018-05-31T03:23:13.650Z,95.02
2018-05-31T03:25:40.695Z,95.04
2018-05-31T03:28:07.684Z,95.07
2018-05-31T03:30:34.984Z,95.14
2018-05-31T03:33:02.109Z,95.27
2018-05-31T03:35:29.145Z,94.98
2018-05-31T03:37:56.180Z,94.92
2018-05-31T03:40:23.282Z,95.17
2018-05-31T03:42:50.320Z,95.21
2018-05-31T03:45:18.225Z,95.15
2018-05-31T03:47:45.235Z,95.09
2018-05-31T03:50:12.408Z,94.93
2018-05-31T03:52:39.532Z,94.70
2018-05-31T03:55:06.555Z,94.63
2018-05-31T03:57:33.559Z,94.51
2018-05-31T04:00:00.718Z,94.43
2018-05-31T04:02:27.703Z,94.29
2018-05-31T04:04:54.709Z,93.94
2018-05-31T04:07:21.741Z,93.41
2018-05-31T04:09:48.740Z,93.01
2018-05-31T04:12:15.848Z,92.75
2018-05-31T04:14:42.910Z,92.67
2018-05-31T04:17:10.147Z,92.62
2018-05-31T04:19:37.197Z,92.46
2018-05-31T04:22:04.228Z,92.24
2018-05-31T04:24:31.264Z,92.08
2018-05-31T04:26:58.264Z,91.97
2018-05-31T04:29:25.270Z,91.85
2018-05-31T04:31:52.301Z,91.60
2018-05-31T04:34:19.358Z,91.34
2018-05-31T04:36:46.361Z,91.71
2018-05-31T04:39:13.394Z,91.41
2018-05-31T04:41:40.397Z,91.24
2018-05-31T04:44:07.615Z,91.04
2018-05-31T04:46:34.625Z,90.86
2018-05-31T04:49:01.628Z,90.43
2018-05-31T04:51:28.624Z,90.12
2018-05-31T04:53:55.683Z,89.98
2018-05-31T04:56:22.892Z,89.67
2018-05-31T04:58:49.928Z,89.12
2018-05-31T05:01:17.676Z,88.63
2018-05-31T05:03:44.804Z,87.93
2018-05-31T05:06:11.838Z,87.59
2018-05-31T05:08:38.963Z,87.37
2018-05-31T05:11:06.010Z,86.93
2018-05-31T05:13:33.015Z,86.39
2018-05-31T05:16:00.038Z,85.26
2018-05-31T05:18:27.058Z,83.28
2018-05-31T05:20:54.086Z,81.33
2018-05-31T05:23:21.080Z,79.22
2018-05-31T05:25:48.441Z,77.63
2018-05-31T05:28:15.493Z,75.58
2018-05-31T05:30:42.698Z,73.22
2018-05-31T05:33:09.775Z,70.86
2018-05-31T05:35:36.735Z,68.82
2018-05-31T05:38:03.758Z,66.76
2018-05-31T05:40:30.888Z,65.39
2018-05-31T05:42:58.105Z,64.09
2018-05-31T05:45:25.174Z,63.36
2018-05-31T05:47:52.194Z,61.99
2018-05-31T05:50:19.201Z,60.99
2018-05-31T05:52:46.238Z,60.36
2018-05-31T05:55:13.243Z,59.12
2018-05-31T05:57:40.259Z,57.17
2018-05-31T06:00:07.311Z,54.86
2018-05-31T06:02:34.331Z,54.67
2018-05-31T06:05:01.384Z,53.47
2018-05-31T06:07:28.404Z,53.58
2018-05-31T06:09:55.445Z,52.74
2018-05-31T06:12:22.625Z,52.16
2018-05-31T06:14:49.651Z,50.24
2018-05-31T06:17:16.679Z,48.93
2018-05-31T06:19:43.692Z,48.05
2018-05-31T06:22:10.690Z,47.98
2018-05-31T06:24:37.759Z,48.11
2018-05-31T06:27:04.726Z,48.18
2018-05-31T06:29:31.767Z,47.99
2018-05-31T06:31:58.773Z,47.06
2018-05-31T06:34:25.950Z,47.39
2018-05-31T06:36:53.285Z,47.16
2018-05-31T06:39:20.330Z,46.71
2018-05-31T06:41:47.380Z,47.26
2018-05-31T06:44:14.358Z,45.68
2018-05-31T06:46:41.371Z,45.69
2018-05-31T06:49:08.834Z,43.85
2018-05-31T06:51:36.310Z,43.73
2018-05-31T06:54:03.335Z,44.00
2018-05-31T06:56:30.356Z,42.32
2018-05-31T06:58:57.336Z,40.99
2018-05-31T07:01:24.371Z,41.96
2018-05-31T07:03:51.384Z,42.22
2018-05-31T07:06:18.991Z,39.97
2018-05-31T07:08:46.044Z,38.77
2018-05-31T07:11:13.115Z,38.58
2018-05-31T07:13:40.362Z,35.82
2018-05-31T07:16:07.351Z,34.42
2018-05-31T07:18:34.490Z,33.55
2018-05-31T07:21:01.500Z,32.51
2018-05-31T07:23:28.527Z,33.06
2018-05-31T07:25:56.085Z,31.26
2018-05-31T07:28:23.083Z,31.66
2018-05-31T07:30:50.176Z,30.17
2018-05-31T07:33:17.212Z,29.38
2018-05-31T07:35:44.221Z,29.35
2018-05-31T07:38:11.226Z,30.63
2018-05-31T07:40:38.241Z,31.27
2018-05-31T07:43:05.310Z,33.32
2018-05-31T07:45:32.336Z,31.17
2018-05-31T07:47:59.491Z,30.83
2018-05-31T07:50:26.571Z,28.68
2018-05-31T07:52:54.131Z,26.82
2018-05-31T07:55:22.107Z,27.33
2018-05-31T07:57:49.600Z,27.14
2018-05-31T08:00:18.866Z,26.53
2018-05-31T08:02:47.923Z,26.77
2018-05-31T08:05:15.406Z,26.47
2018-05-31T08:07:42.945Z,26.50
2018-05-31T08:10:10.917Z,25.63
2018-05-31T08:12:41.588Z,25.35
2018-05-31T08:15:09.461Z,24.25
2018-05-31T08:17:37.685Z,25.36
2018-05-31T08:20:05.338Z,24.31
2018-05-31T08:22:32.422Z,22.97
2018-05-31T08:24:59.425Z,22.67
2018-05-31T08:27:26.426Z,22.84
2018-05-31T08:29:53.543Z,22.56
2018-05-31T08:32:20.702Z,22.77
2018-05-31T08:34:47.717Z,22.75
2018-05-31T08:37:15.286Z,22.06
2018-05-31T08:39:42.757Z,21.46
2018-05-31T08:42:10.233Z,22.37
2018-05-31T08:44:38.442Z,21.76
2018-05-31T08:47:05.907Z,21.06
2018-05-31T08:49:33.502Z,19.73
2018-05-31T08:52:01.127Z,18.32
2018-05-31T08:54:28.626Z,17.39
2018-05-31T08:56:56.176Z,16.52
2018-05-31T08:59:23.861Z,16.96
2018-05-31T09:01:51.322Z,16.92
2018-05-31T09:04:18.805Z,16.02
2018-05-31T09:06:46.293Z,16.26
2018-05-31T09:09:13.771Z,17.49
2018-05-31T09:11:41.242Z,16.47
2018-05-31T09:14:08.708Z,16.84
2018-05-31T09:16:36.163Z,16.46
2018-05-31T09:19:03.668Z,16.61
2018-05-31T09:21:31.369Z,15.93
2018-05-31T09:23:58.839Z,14.86
2018-05-31T09:26:26.387Z,14.24
2018-05-31T09:28:53.886Z,13.60
2018-05-31T09:31:21.377Z,14.94
2018-05-31T09:33:48.941Z,14.68
2018-05-31T09:36:16.607Z,14.18
2018-05-31T09:38:44.169Z,15.62
2018-05-31T09:41:11.657Z,15.23
2018-05-31T09:43:40.567Z,13.90
2018-05-31T09:46:08.139Z,14.51
2018-05-31T09:48:35.611Z,13.17
2018-05-31T09:51:05.589Z,13.15
2018-05-31T09:53:33.370Z,13.48
2018-05-31T09:56:00.839Z,13.59
2018-05-31T09:58:28.551Z,12.76
2018-05-31T10:00:56.021Z,12.73
2018-05-31T10:03:23.517Z,13.94
2018-05-31T10:05:51.078Z,12.91
2018-05-31T10:08:18.573Z,12.45
2018-05-31T10:10:46.311Z,13.27
2018-05-31T10:13:14.631Z,12.26
2018-05-31T10:15:42.109Z,11.90
2018-05-31T10:18:09.581Z,11.97
2018-05-31T10:20:37.336Z,11.61
2018-05-31T10:23:04.896Z,11.82
2018-05-31T10:25:32.362Z,11.60
2018-05-31T10:27:59.858Z,12.24
2018-05-31T10:30:27.547Z,11.59
2018-05-31T10:32:55.148Z,11.27
2018-05-31T10:35:22.595Z,11.87
2018-05-31T10:37:50.148Z,13.09
2018-05-31T10:40:17.813Z,12.75
2018-05-31T10:42:45.250Z,11.99
2018-05-31T10:45:12.757Z,11.85
2018-05-31T10:47:40.228Z,12.92
2018-05-31T10:50:07.704Z,14.01
2018-05-31T10:52:35.202Z,14.86
2018-05-31T10:55:03.273Z,15.58
2018-05-31T10:57:30.772Z,17.59
2018-05-31T10:59:58.240Z,18.69
2018-05-31T11:02:25.767Z,19.50
2018-05-31T11:04:53.432Z,22.10
2018-05-31T11:07:21.003Z,24.15
2018-05-31T11:09:48.482Z,25.65
2018-05-31T11:12:15.953Z,26.60
2018-05-31T11:14:43.508Z,26.52
2018-05-31T11:17:10.968Z,26.29
2018-05-31T11:19:38.433Z,26.52
2018-05-31T11:22:06.082Z,27.36
2018-05-31T11:24:33.564Z,28.52
2018-05-31T11:27:01.013Z,30.51
2018-05-31T11:29:28.591Z,29.32
2018-05-31T11:31:56.052Z,28.32
2018-05-31T11:34:23.646Z,29.36
2018-05-31T11:36:51.083Z,28.15
2018-05-31T11:39:18.567Z,32.05
2018-05-31T11:41:46.038Z,33.38
2018-05-31T11:44:13.509Z,31.35
2018-05-31T11:46:40.959Z,31.75
2018-05-31T11:49:08.463Z,30.33
2018-05-31T11:51:35.928Z,31.19
2018-05-31T11:54:03.566Z,31.11
2018-05-31T11:56:31.012Z,30.70
2018-05-31T11:58:58.537Z,31.24
2018-05-31T12:01:26.029Z,31.18
2018-05-31T12:03:53.535Z,31.35
2018-05-31T12:06:21.002Z,30.36
2018-05-31T12:08:48.482Z,29.39
2018-05-31T12:11:16.044Z,30.38
2018-05-31T12:13:43.496Z,28.15
2018-05-31T12:16:11.119Z,27.36
2018-05-31T12:18:38.605Z,27.31
2018-05-31T12:21:06.087Z,27.19
2018-05-31T12:23:34.609Z,27.21
2018-05-31T12:26:02.145Z,26.15
2018-05-31T12:28:30.122Z,26.60
2018-05-31T12:30:57.617Z,26.23
2018-05-31T12:33:25.109Z,26.64
2018-05-31T12:35:52.581Z,29.84
2018-05-31T12:38:20.173Z,28.13
2018-05-31T12:40:47.664Z,26.83
2018-05-31T12:43:15.352Z,27.35
2018-05-31T12:45:42.803Z,27.22
2018-05-31T12:48:10.441Z,26.94
2018-05-31T12:50:37.930Z,25.87
2018-05-31T12:53:05.524Z,26.99
2018-05-31T12:55:32.988Z,26.59
2018-05-31T12:58:00.522Z,26.88
2018-05-31T13:00:27.984Z,26.66
2018-05-31T13:02:55.444Z,26.66
2018-05-31T13:05:22.944Z,27.54
2018-05-31T13:07:50.398Z,27.87
2018-05-31T13:10:17.868Z,29.36
2018-05-31T13:12:46.057Z,30.98
2018-05-31T13:15:13.519Z,29.79
2018-05-31T13:17:40.973Z,31.38
2018-05-31T13:20:08.444Z,32.24
2018-05-31T13:22:36.164Z,31.72
2018-05-31T13:25:03.708Z,32.92
2018-05-31T13:27:31.243Z,33.85
2018-05-31T13:29:58.721Z,32.84
2018-05-31T13:32:26.178Z,31.47
2018-05-31T13:34:53.659Z,31.70
2018-05-31T13:37:21.152Z,30.89
2018-05-31T13:39:48.721Z,34.43
2018-05-31T13:42:16.259Z,31.52
2018-05-31T13:44:43.706Z,34.75
2018-05-31T13:47:11.183Z,39.10
2018-05-31T13:49:38.684Z,41.36
2018-05-31T13:52:06.159Z,42.26
2018-05-31T13:54:33.622Z,43.35
2018-05-31T13:57:01.090Z,44.15
2018-05-31T13:59:28.566Z,44.63
2018-05-31T14:01:56.102Z,44.03
2018-05-31T14:04:23.398Z,43.76
2018-05-31T14:06:50.910Z,44.78
2018-05-31T14:09:18.042Z,44.99
2018-05-31T14:11:45.060Z,45.60
2018-05-31T14:14:12.104Z,45.50
2018-05-31T14:16:39.119Z,45.68
2018-05-31T14:19:06.121Z,46.46
2018-05-31T14:21:33.225Z,47.37
2018-05-31T14:24:00.245Z,47.85
2018-05-31T14:26:27.248Z,48.24
2018-05-31T14:28:54.244Z,48.59
2018-05-31T14:31:21.753Z,48.34
2018-05-31T14:33:48.768Z,48.63
2018-05-31T14:36:15.773Z,48.64
2018-05-31T14:38:42.830Z,49.61
2018-05-31T14:41:09.848Z,47.45
2018-05-31T14:43:36.854Z,48.42
2018-05-31T14:46:03.956Z,47.57
2018-05-31T14:48:30.958Z,48.56
2018-05-31T14:50:58.658Z,48.63
2018-05-31T14:53:25.714Z,48.93
2018-05-31T14:55:53.182Z,48.73
2018-05-31T14:58:20.673Z,47.63
2018-05-31T15:00:48.147Z,48.07
2018-05-31T15:03:15.751Z,48.10
2018-05-31T15:05:43.206Z,47.31
2018-05-31T15:08:10.745Z,48.06
2018-05-31T15:10:38.438Z,47.30
2018-05-31T15:13:05.925Z,47.46
2018-05-31T15:15:33.563Z,46.73
2018-05-31T15:18:01.039Z,46.59
2018-05-31T15:20:28.665Z,47.49
2018-05-31T15:22:56.203Z,48.30
2018-05-31T15:25:24.144Z,47.33
2018-05-31T15:27:51.617Z,46.73
2018-05-31T15:30:19.221Z,46.80
2018-05-31T15:32:46.716Z,45.74
2018-05-31T15:35:14.192Z,45.16
2018-05-31T15:37:41.699Z,44.51
2018-05-31T15:40:10.116Z,44.49
2018-05-31T15:42:37.729Z,43.53
2018-05-31T15:45:05.389Z,43.12
2018-05-31T15:47:32.940Z,42.68
2018-05-31T15:50:00.403Z,42.74
2018-05-31T15:52:27.874Z,43.14
2018-05-31T15:54:55.330Z,43.92
2018-05-31T15:57:22.840Z,44.91
2018-05-31T15:59:50.294Z,46.08
2018-05-31T16:02:17.751Z,46.31
2018-05-31T16:04:45.435Z,47.07
2018-05-31T16:07:12.929Z,47.49
2018-05-31T16:09:40.385Z,47.43
2018-05-31T16:12:07.843Z,47.45
2018-05-31T16:14:35.421Z,47.77
2018-05-31T16:17:02.893Z,47.52
2018-05-31T16:19:30.385Z,47.44
2018-05-31T16:21:57.865Z,48.05
2018-05-31T16:24:25.344Z,48.12
2018-05-31T16:26:52.817Z,48.24
2018-05-31T16:29:20.394Z,48.38
2018-05-31T16:31:47.866Z,49.24
2018-05-31T16:34:15.448Z,48.79
2018-05-31T16:36:43.075Z,49.00
2018-05-31T16:39:10.555Z,48.91
2018-05-31T16:41:38.019Z,49.37
2018-05-31T16:44:05.504Z,49.25
2018-05-31T16:46:32.984Z,50.42
2018-05-31T16:49:00.610Z,50.40
2018-05-31T16:51:28.059Z,50.54
2018-05-31T16:53:55.533Z,50.89
2018-05-31T16:56:23.026Z,51.40
2018-05-31T16:58:50.708Z,50.94
2018-05-31T17:01:18.169Z,51.10
2018-05-31T17:03:45.685Z,51.70
2018-05-31T17:06:13.169Z,51.92
2018-05-31T17:08:40.630Z,52.99
2018-05-31T17:11:08.094Z,52.14
2018-05-31T17:13:35.603Z,52.94
2018-05-31T17:16:04.295Z,52.94
2018-05-31T17:18:31.811Z,53.08
2018-05-31T17:20:59.896Z,52.55
2018-05-31T17:23:27.418Z,53.38
2018-05-31T17:25:54.950Z,53.89
2018-05-31T17:28:22.664Z,54.41
2018-05-31T17:30:50.205Z,57.44
2018-05-31T17:33:17.760Z,57.46
2018-05-31T17:35:45.220Z,58.53
2018-05-31T17:38:12.869Z,58.97
2018-05-31T17:40:40.511Z,58.84
2018-05-31T17:43:07.990Z,59.34
2018-05-31T17:45:35.606Z,61.08
2018-05-31T17:48:03.165Z,61.50
2018-05-31T17:50:30.655Z,61.41
2018-05-31T17:52:58.285Z,62.07
2018-05-31T17:55:25.758Z,63.34
2018-05-31T17:57:53.398Z,63.60
2018-05-31T18:13:58.791Z,65.07
2018-05-31T18:16:26.258Z,65.81
2018-05-31T18:18:53.841Z,65.66
2018-05-31T18:21:21.304Z,65.19
2018-05-31T18:23:48.779Z,64.88
2018-05-31T18:26:16.252Z,64.77
2018-05-31T18:28:43.710Z,66.11
2018-05-31T18:31:11.196Z,66.28
2018-05-31T18:33:38.704Z,67.13
2018-05-31T18:36:06.135Z,67.89
2018-05-31T18:38:33.590Z,67.94
2018-05-31T18:41:01.078Z,68.20
2018-05-31T18:43:28.875Z,68.68
2018-05-31T18:45:56.367Z,68.44
2018-05-31T18:48:24.225Z,68.95
2018-05-31T18:50:51.800Z,69.21
2018-05-31T18:53:18.866Z,69.58
2018-05-31T18:55:45.901Z,69.93
2018-05-31T18:58:12.951Z,70.53
2018-05-31T19:00:40.144Z,70.38
2018-05-31T19:03:07.827Z,70.48
2018-05-31T19:05:34.831Z,70.67
2018-05-31T19:08:01.969Z,71.25
2018-05-31T19:10:29.001Z,70.97
2018-05-31T19:13:01.697Z,71.42
2018-05-31T19:15:35.644Z,72.41
2018-05-31T19:18:02.687Z,72.55
2018-05-31T19:20:29.717Z,72.68
2018-05-31T19:22:56.727Z,73.02
2018-05-31T19:25:23.732Z,73.62
2018-05-31T19:27:50.800Z,73.79
2018-05-31T19:30:24.441Z,73.99
2018-05-31T19:32:51.466Z,74.19
2018-05-31T19:35:24.259Z,74.75
2018-05-31T19:37:51.286Z,74.34
2018-05-31T19:40:18.336Z,74.45
2018-05-31T19:42:51.037Z,74.90
2018-05-31T19:45:18.032Z,75.32
2018-05-31T19:47:45.490Z,75.30
2018-05-31T19:50:12.543Z,75.25
2018-05-31T19:52:45.660Z,75.57
2018-05-31T19:55:13.129Z,75.23
2018-05-31T19:57:46.527Z,75.74
2018-05-31T20:00:19.795Z,76.07
2018-05-31T20:05:51.625Z,76.72
2018-05-31T20:08:18.655Z,76.62
2018-05-31T20:10:46.250Z,76.03
2018-05-31T20:13:13.863Z,76.37
2018-05-31T20:15:41.536Z,76.31
2018-05-31T20:18:09.025Z,76.68
2018-05-31T20:20:36.510Z,76.71
2018-05-31T20:23:03.972Z,76.58
2018-05-31T20:25:31.580Z,76.93
2018-05-31T20:27:59.060Z,77.20
2018-05-31T20:30:26.207Z,77.44
2018-05-31T20:32:53.245Z,77.58
2018-05-31T20:35:20.295Z,77.87
2018-05-31T20:37:47.348Z,78.08
2018-05-31T20:40:14.345Z,78.17
2018-05-31T20:42:41.877Z,78.38
2018-05-31T20:45:09.582Z,78.43
2018-05-31T20:47:36.775Z,78.35
2018-05-31T20:50:04.260Z,78.68
2018-05-31T20:52:31.751Z,78.85
2018-05-31T20:54:59.216Z,79.15
2018-05-31T20:57:26.680Z,81.22
2018-05-31T20:59:54.178Z,82.55
2018-05-31T21:02:21.638Z,83.40
2018-05-31T21:04:49.101Z,83.58
2018-05-31T21:07:16.894Z,84.24
2018-05-31T21:09:44.410Z,84.73
2018-05-31T21:12:11.403Z,85.72
2018-05-31T21:14:38.432Z,87.02
2018-05-31T21:17:05.976Z,87.38
2018-05-31T21:19:32.978Z,87.17
2018-05-31T21:22:00.036Z,86.97
2018-05-31T21:24:27.020Z,86.72
2018-05-31T21:26:54.063Z,86.56
2018-05-31T21:29:21.099Z,87.03
2018-05-31T21:31:48.118Z,87.10
2018-05-31T21:34:15.180Z,87.46
2018-05-31T21:36:42.236Z,88.22
2018-05-31T21:39:09.307Z,89.05
2018-05-31T21:41:36.374Z,89.26
2018-05-31T21:44:03.400Z,88.95
2018-05-31T21:46:30.440Z,88.70
2018-05-31T21:48:57.426Z,85.26
2018-05-31T21:51:24.422Z,77.66
2018-05-31T21:53:51.410Z,75.43
2018-05-31T21:56:18.758Z,75.61
2018-05-31T21:58:45.755Z,76.25
2018-05-31T22:01:12.792Z,78.01
2018-05-31T22:03:39.830Z,75.83
2018-05-31T22:06:06.851Z,76.80
2018-05-31T22:08:33.866Z,78.46
2018-05-31T22:11:01.095Z,81.62
2018-05-31T22:13:28.191Z,85.13
2018-05-31T22:15:55.219Z,97.32
2018-05-31T22:18:22.269Z,98.97
2018-05-31T22:20:49.291Z,100.00
2018-05-31T22:23:16.495Z,100.00
2018-05-31T22:25:43.793Z,100.00
2018-05-31T22:28:10.831Z,100.00
2018-05-31T22:30:37.895Z,100.00
2018-05-31T22:33:04.891Z,100.00
2018-05-31T22:35:31.963Z,100.00
2018-05-31T22:37:59.159Z,100.00
2018-05-31T22:40:26.191Z,100.00
2018-05-31T22:42:53.213Z,100.00
2018-05-31T22:45:20.242Z,100.00
2018-05-31T22:47:47.430Z,100.00
2018-05-31T22:50:14.441Z,100.00
2018-05-31T22:52:41.482Z,100.00
2018-05-31T22:55:08.764Z,100.00
2018-05-31T22:57:35.796Z,100.00
2018-05-31T23:00:02.809Z,100.00
2018-05-31T23:02:29.885Z,100.00
2018-05-31T23:04:56.910Z,100.00
2018-05-31T23:07:24.126Z,100.00
2018-05-31T23:09:51.573Z,100.00
2018-05-31T23:12:18.639Z,100.00
2018-05-31T23:14:45.670Z,100.00
2018-05-31T23:17:12.687Z,100.00
2018-05-31T23:19:39.696Z,100.00
2018-05-31T23:22:06.695Z,100.00
2018-05-31T23:24:33.948Z,100.00
2018-05-31T23:27:00.980Z,100.00
2018-05-31T23:29:27.975Z,100.00
2018-05-31T23:31:54.973Z,100.00
2018-05-31T23:34:21.977Z,100.00
2018-05-31T23:36:48.998Z,100.00
2018-05-31T23:39:15.983Z,100.00
2018-05-31T23:41:43.042Z,100.00
2018-05-31T23:44:10.171Z,100.00
2018-05-31T23:46:37.172Z,100.00
2018-05-31T23:49:04.210Z,100.00
2018-05-31T23:51:31.254Z,100.00
2018-05-31T23:53:58.258Z,100.00
2018-05-31T23:56:25.360Z,100.00
2018-05-31T23:58:52.360Z,100.00
